createdAt,value
2022-09-20T00:01:33.751Z,10.11
2022-09-20T00:06:36.304Z,10.13
2022-09-20T00:11:38.661Z,10.15
2022-09-20T00:16:41.000Z,10.14
2022-09-20T00:21:43.205Z,10.13
2022-09-20T00:26:45.115Z,10.12
2022-09-20T00:31:47.606Z,10.10
2022-09-20T00:36:50.609Z,10.04
2022-09-20T00:41:52.736Z,9.97
2022-09-20T00:46:55.455Z,9.91
2022-09-20T00:52:01.629Z,9.92
2022-09-20T00:57:04.212Z,9.94
2022-09-20T01:02:13.113Z,9.91
2022-09-20T01:07:19.543Z,9.84
2022-09-20T01:12:29.417Z,9.77
2022-09-20T01:17:34.525Z,9.66
2022-09-20T01:22:40.344Z,9.56
2022-09-20T01:27:47.396Z,9.46
2022-09-20T01:33:06.114Z,9.39
2022-09-20T01:38:26.881Z,9.39
2022-09-20T01:43:32.052Z,9.44
2022-09-20T01:48:39.235Z,9.46
2022-09-20T01:54:09.432Z,9.45
2022-09-20T01:59:48.377Z,9.45
2022-09-20T02:05:11.051Z,9.46
2022-09-20T02:10:34.676Z,9.48
2022-09-20T02:15:52.433Z,9.43
2022-09-20T02:21:05.179Z,9.34
2022-09-20T02:26:29.739Z,9.22
2022-09-20T02:32:09.084Z,9.16
2022-09-20T02:37:43.780Z,9.09
2022-09-20T02:43:03.695Z,9.03
2022-09-20T02:48:05.931Z,8.99
2022-09-20T02:53:14.602Z,8.93
2022-09-20T02:58:38.430Z,8.96
2022-09-20T03:04:03.247Z,9.03
2022-09-20T03:09:35.846Z,9.11
2022-09-20T03:14:53.243Z,9.13
2022-09-20T03:20:08.389Z,9.14
2022-09-20T03:25:31.119Z,9.13
2022-09-20T03:30:42.624Z,9.09
2022-09-20T03:35:55.943Z,9.07
2022-09-20T03:41:26.028Z,9.02
2022-09-20T03:46:51.415Z,8.99
2022-09-20T03:52:17.928Z,8.95
2022-09-20T03:57:34.866Z,8.99
2022-09-20T04:03:02.928Z,9.07
2022-09-20T04:08:40.167Z,9.17
2022-09-20T04:13:54.189Z,9.28
2022-09-20T04:19:04.077Z,9.29
2022-09-20T04:24:14.393Z,9.31
2022-09-20T04:29:40.170Z,9.37
2022-09-20T04:35:24.096Z,9.45
2022-09-20T04:40:29.483Z,9.50
2022-09-20T04:46:09.750Z,9.50
2022-09-20T04:51:18.106Z,9.51
2022-09-20T04:56:28.253Z,9.49
2022-09-20T05:02:00.460Z,9.48
2022-09-20T05:07:21.087Z,9.47
2022-09-20T05:12:54.060Z,9.49
2022-09-20T05:18:10.713Z,9.52
2022-09-20T05:23:41.122Z,9.58
2022-09-20T05:28:55.426Z,9.63
2022-09-20T05:34:11.420Z,9.64
2022-09-20T05:39:41.785Z,9.68
2022-09-20T05:45:21.755Z,9.73
2022-09-20T05:50:41.512Z,9.82
2022-09-20T05:55:46.666Z,9.90
2022-09-20T06:01:02.610Z,9.98
2022-09-20T06:06:07.900Z,10.06
2022-09-20T06:11:15.906Z,10.12
2022-09-20T06:16:31.337Z,10.23
2022-09-20T06:21:52.228Z,10.35
2022-09-20T06:26:56.567Z,10.47
2022-09-20T06:31:58.832Z,10.65
2022-09-20T06:37:38.404Z,10.68
2022-09-20T06:42:44.682Z,10.84
2022-09-20T06:47:46.868Z,10.87
2022-09-20T06:52:50.121Z,10.85
2022-09-20T06:57:52.394Z,10.85
2022-09-20T07:02:56.682Z,10.94
2022-09-20T07:07:59.783Z,10.97
2022-09-20T07:13:02.558Z,10.99
2022-09-20T07:18:05.424Z,11.02
2022-09-20T07:23:07.953Z,11.08
2022-09-20T07:28:09.955Z,11.18
2022-09-20T07:33:17.203Z,11.26
2022-09-20T07:38:19.842Z,11.37
2022-09-20T07:43:22.538Z,11.58
2022-09-20T07:48:31.178Z,11.63
2022-09-20T07:53:34.266Z,11.97
2022-09-20T07:58:41.556Z,12.33
2022-09-20T08:03:44.744Z,12.38
2022-09-20T08:08:47.204Z,12.38
2022-09-20T08:14:08.885Z,12.46
2022-09-20T08:19:23.616Z,12.65
2022-09-20T08:24:26.713Z,12.77
2022-09-20T08:29:28.604Z,12.68
2022-09-20T08:34:31.095Z,12.83
2022-09-20T08:45:05.405Z,13.27
2022-09-20T08:50:17.620Z,13.20
2022-09-20T08:55:25.647Z,13.32
2022-09-20T09:00:34.042Z,13.41
2022-09-20T09:05:43.526Z,13.32
2022-09-20T09:10:59.460Z,13.30
2022-09-20T09:16:09.758Z,13.41
2022-09-20T09:21:30.032Z,13.48
2022-09-20T09:26:37.990Z,13.44
2022-09-20T09:31:41.200Z,13.34
2022-09-20T09:36:44.841Z,13.40
2022-09-20T09:41:48.405Z,13.47
2022-09-20T09:46:53.589Z,13.29
2022-09-20T09:52:12.738Z,13.04
2022-09-20T09:57:23.460Z,12.87
2022-09-20T10:03:04.746Z,12.68
2022-09-20T10:08:22.050Z,12.66
2022-09-20T10:13:43.846Z,12.72
2022-09-20T10:19:03.863Z,12.77
2022-09-20T10:24:41.760Z,12.93
2022-09-20T10:29:58.254Z,13.28
2022-09-20T10:35:15.631Z,13.22
2022-09-20T10:40:57.142Z,13.23
2022-09-20T10:46:33.528Z,13.38
2022-09-20T10:52:05.244Z,13.58
2022-09-20T10:57:41.163Z,13.70
2022-09-20T11:02:59.123Z,13.57
2022-09-20T11:08:14.124Z,13.42
2022-09-20T11:13:26.052Z,13.42
2022-09-20T11:18:45.759Z,13.54
2022-09-20T11:24:21.846Z,13.76
2022-09-20T11:29:31.997Z,14.26
2022-09-20T11:34:59.489Z,14.35
2022-09-20T11:40:22.183Z,14.42
2022-09-20T11:45:28.558Z,14.45
2022-09-20T11:50:52.202Z,14.66
2022-09-20T11:56:12.535Z,14.88
2022-09-20T12:01:17.167Z,14.92
2022-09-20T12:06:34.218Z,15.25
2022-09-20T12:11:38.906Z,15.56
2022-09-20T12:16:46.040Z,15.94
2022-09-20T12:22:00.390Z,16.19
2022-09-20T12:27:45.201Z,16.46
2022-09-20T12:32:53.083Z,16.48
2022-09-20T12:37:55.407Z,16.69
2022-09-20T12:42:58.147Z,17.01
2022-09-20T12:48:01.157Z,17.12
2022-09-20T12:53:12.295Z,16.99
2022-09-20T12:58:22.672Z,16.68
2022-09-20T13:03:41.219Z,16.63
2022-09-20T13:08:50.263Z,16.75
2022-09-20T13:13:58.294Z,16.87
2022-09-20T13:19:18.083Z,16.91
2022-09-20T13:24:24.001Z,16.96
2022-09-20T13:29:34.934Z,16.86
2022-09-20T13:34:38.144Z,16.78
2022-09-20T13:39:42.056Z,16.56
2022-09-20T13:44:46.128Z,16.19
2022-09-20T13:49:49.109Z,16.06
2022-09-20T13:54:55.378Z,16.11
2022-09-20T14:00:01.108Z,16.22
2022-09-20T14:05:07.100Z,16.29
2022-09-20T14:10:36.453Z,16.24
2022-09-20T14:15:45.170Z,16.19
2022-09-20T14:20:48.331Z,16.20
2022-09-20T14:26:15.946Z,16.19
2022-09-20T14:31:21.635Z,16.05
2022-09-20T14:36:27.891Z,15.75
2022-09-20T14:41:36.937Z,15.60
2022-09-20T14:46:39.168Z,15.40
2022-09-20T14:51:41.343Z,15.19
2022-09-20T14:56:52.810Z,15.05
2022-09-20T15:02:16.041Z,14.95
2022-09-20T15:07:18.703Z,14.82
2022-09-20T15:12:21.588Z,14.83
2022-09-20T15:17:24.266Z,15.08
2022-09-20T15:22:27.175Z,15.40
2022-09-20T15:27:30.144Z,15.47
2022-09-20T15:32:33.291Z,15.33
2022-09-20T15:37:35.702Z,15.09
2022-09-20T15:42:37.845Z,14.93
2022-09-20T15:47:39.856Z,14.77
2022-09-20T15:52:42.260Z,14.61
2022-09-20T15:57:45.111Z,14.46
2022-09-20T16:02:50.686Z,14.29
2022-09-20T16:07:53.862Z,14.20
2022-09-20T16:12:56.942Z,14.06
2022-09-20T16:18:18.222Z,13.86
2022-09-20T16:23:24.087Z,13.67
2022-09-20T16:28:32.045Z,13.54
2022-09-20T16:33:35.724Z,13.41
2022-09-20T16:38:37.931Z,13.27
2022-09-20T16:43:41.669Z,13.10
2022-09-20T16:48:44.055Z,12.95
2022-09-20T16:53:46.133Z,12.82
2022-09-20T16:58:49.348Z,12.72
2022-09-20T17:03:51.448Z,12.60
2022-09-20T17:08:58.801Z,12.49
2022-09-20T17:14:01.746Z,12.32
2022-09-20T17:19:16.129Z,12.21
2022-09-20T17:24:20.937Z,12.11
2022-09-20T17:29:23.696Z,11.99
2022-09-20T17:34:27.512Z,11.90
2022-09-20T17:39:29.227Z,11.73
2022-09-20T17:44:34.734Z,11.59
2022-09-20T17:49:39.675Z,11.53
2022-09-20T17:54:43.398Z,11.43
2022-09-20T17:59:45.979Z,11.32
2022-09-20T18:04:48.870Z,11.19
2022-09-20T18:09:51.224Z,11.09
2022-09-20T18:14:53.579Z,10.96
2022-09-20T18:19:55.592Z,10.85
2022-09-20T18:24:57.696Z,10.73
2022-09-20T18:30:03.447Z,10.54
2022-09-20T18:35:06.697Z,10.36
2022-09-20T18:40:10.202Z,10.24
2022-09-20T18:45:12.806Z,10.14
2022-09-20T18:50:15.039Z,10.09
2022-09-20T18:55:17.778Z,10.03
2022-09-20T19:00:20.526Z,10.01
2022-09-20T19:05:25.904Z,10.03
2022-09-20T19:10:34.924Z,10.05
2022-09-20T19:15:43.567Z,10.03
2022-09-20T19:20:58.107Z,9.99
2022-09-20T19:26:08.465Z,10.00
2022-09-20T19:31:30.389Z,10.00
2022-09-20T19:36:32.440Z,10.04
2022-09-20T19:41:44.849Z,10.06
2022-09-20T19:46:57.379Z,10.11
2022-09-20T19:52:04.225Z,10.16
2022-09-20T19:57:15.665Z,10.21
2022-09-20T20:02:18.624Z,10.25
2022-09-20T20:07:37.069Z,10.27
2022-09-20T20:13:27.872Z,10.27
2022-09-20T20:19:08.220Z,10.27
2022-09-20T20:24:32.920Z,10.30
2022-09-20T20:29:35.851Z,10.31
2022-09-20T20:34:40.033Z,10.32
2022-09-20T20:39:42.827Z,10.29
2022-09-20T20:44:45.148Z,10.23
2022-09-20T20:49:50.743Z,10.19
2022-09-20T20:54:55.129Z,10.13
2022-09-20T20:59:57.206Z,10.01
2022-09-20T21:05:00.842Z,9.92
2022-09-20T21:10:03.357Z,9.77
2022-09-20T21:15:06.807Z,9.62
2022-09-20T21:20:09.901Z,9.48
2022-09-20T21:25:12.017Z,9.36
2022-09-20T21:30:14.279Z,9.26
2022-09-20T21:35:16.722Z,9.16
2022-09-20T21:40:19.194Z,9.10
2022-09-20T21:45:23.827Z,9.06
2022-09-20T21:50:26.661Z,9.02
2022-09-20T21:55:28.951Z,9.04
2022-09-20T22:00:30.959Z,9.07
2022-09-20T22:05:34.168Z,9.10
2022-09-20T22:10:36.580Z,9.17
2022-09-20T22:15:38.765Z,9.17
2022-09-20T22:20:40.855Z,9.18
2022-09-20T22:25:43.903Z,9.21
2022-09-20T22:30:45.946Z,9.18
2022-09-20T22:35:48.202Z,9.17
2022-09-20T22:40:54.836Z,9.10
2022-09-20T22:46:02.521Z,9.01
2022-09-20T22:51:08.587Z,8.95
2022-09-20T22:56:12.468Z,8.85
2022-09-20T23:01:21.226Z,8.76
2022-09-20T23:06:29.900Z,8.68
2022-09-20T23:11:32.584Z,8.59
2022-09-20T23:16:36.388Z,8.52
2022-09-20T23:21:40.248Z,8.47
2022-09-20T23:26:42.986Z,8.44
2022-09-20T23:31:47.488Z,8.42
2022-09-20T23:36:50.422Z,8.35
2022-09-20T23:41:52.629Z,8.28
2022-09-20T23:46:55.364Z,8.25
2022-09-20T23:51:57.847Z,8.23
2022-09-20T23:57:00.059Z,8.18
